This is the latest recevied weather packets stored in our database for station/object OE3PDB-4. If no packets are shown the sender has not sent any weather packets the latest 1 day(s).
| Time | Temp. | Humidity | Pressure | Rain* | Wind** | Luminosity | Snow |
|---|---|---|---|---|---|---|---|
| 1777986000 | 28.89° C | 26% | 1006.3 hPa | 0 mm | 0 m/s | - | - |
| 1777985400 | 28.89° C | 26% | 1006.4 hPa | 0 mm | 1.34 m/s, 315° | - | - |
| 1777984800 | 28.89° C | 26% | 1006.6 hPa | 0 mm | 0 m/s | - | - |
| 1777984200 | 28.33° C | 26% | 1006.7 hPa | 0 mm | 0 m/s | - | - |
| 1777983600 | 28.33° C | 27% | 1006.9 hPa | 0 mm | 0.45 m/s, 180° | - | - |
| 1777983000 | 27.78° C | 28% | 1006.9 hPa | 0 mm | 0 m/s | - | - |
| 1777982401 | 27.78° C | 28% | 1007 hPa | 0 mm | 0.45 m/s, 157° | - | - |
| 1777981801 | 27.78° C | 30% | 1007.2 hPa | 0 mm | 1.34 m/s, 180° | - | - |
| 1777981201 | 27.78° C | 32% | 1007.2 hPa | 0 mm | 0 m/s | - | - |
| 1777980601 | 27.22° C | 34% | 1007.3 hPa | 0 mm | 1.79 m/s, 157° | - | - |
| 1777980001 | 26.67° C | 36% | 1007.4 hPa | 0 mm | 0.45 m/s, 180° | - | - |
| 1777979401 | 26.11° C | 39% | 1007.7 hPa | 0 mm | 0 m/s | - | - |
| 1777978801 | 26.11° C | 39% | 1008 hPa | 0 mm | 0 m/s | - | - |
| 1777978201 | 25° C | 40% | 1008.2 hPa | 0 mm | 0 m/s | - | - |
| 1777977601 | 25° C | 41% | 1008.3 hPa | 0 mm | 0.45 m/s, 202° | - | - |
| 1777977001 | 24.44° C | 41% | 1008.5 hPa | 0 mm | 0 m/s | - | - |
| 1777976401 | 23.89° C | 41% | 1008.7 hPa | 0 mm | 0 m/s | - | - |
| 1777975801 | 23.89° C | 42% | 1008.8 hPa | 0 mm | 0.45 m/s, 180° | - | - |
| 1777975201 | 23.33° C | 43% | 1009.1 hPa | 0 mm | 0.45 m/s, 292° | - | - |
| 1777974601 | 22.78° C | 43% | 1009.2 hPa | 0 mm | 0.89 m/s, 180° | - | - |
| 1777974001 | 22.22° C | 44% | 1009.2 hPa | 0 mm | 0 m/s | - | - |
| 1777973401 | 22.22° C | 44% | 1009.3 hPa | 0 mm | 0 m/s | - | - |
| 1777972801 | 22.22° C | 44% | 1009.5 hPa | 0 mm | 0 m/s | - | - |
| 1777972201 | 21.67° C | 45% | 1009.6 hPa | 0 mm | 0 m/s | - | - |
| 1777971601 | 21.67° C | 46% | 1009.7 hPa | 0 mm | 0 m/s | - | - |
* Rain latest hour (hover to see other rain measurements)
** Current wind speed in m/s (hover to see current wind gust speed)